createdAt,value
2018-08-04T00:01:05.827Z,24.09
2018-08-04T00:02:16.118Z,24.09
2018-08-04T00:03:26.417Z,24.05
2018-08-04T00:04:36.555Z,24.02
2018-08-04T00:05:46.703Z,24.07
2018-08-04T00:06:56.837Z,24.01
2018-08-04T00:08:06.993Z,23.97
2018-08-04T00:09:18.154Z,24.09
2018-08-04T00:10:28.296Z,24.07
2018-08-04T00:11:38.451Z,24.01
2018-08-04T00:12:48.701Z,24
2018-08-04T00:13:58.976Z,24.05
2018-08-04T00:15:08.609Z,24.09
2018-08-04T00:16:18.474Z,24.05
2018-08-04T00:17:28.700Z,23.98
2018-08-04T00:18:38.630Z,24
2018-08-04T00:19:48.780Z,24.05
2018-08-04T00:20:58.912Z,24.07
2018-08-04T00:22:09.051Z,24.07
2018-08-04T00:23:19.176Z,24.07
2018-08-04T00:24:29.363Z,24.05
2018-08-04T00:25:39.524Z,24.02
2018-08-04T00:26:49.777Z,23.98
2018-08-04T00:27:59.981Z,23.92
2018-08-04T00:29:10.260Z,23.9
2018-08-04T00:30:20.511Z,23.94
2018-08-04T00:31:30.354Z,23.94
2018-08-04T00:32:40.523Z,23.94
2018-08-04T00:33:50.704Z,23.91
2018-08-04T00:35:01.012Z,23.91
2018-08-04T00:36:10.931Z,23.75
2018-08-04T00:37:21.052Z,23.76
2018-08-04T00:38:31.297Z,23.79
2018-08-04T00:39:41.477Z,23.85
2018-08-04T00:40:51.655Z,23.79
2018-08-04T00:42:01.282Z,23.8
2018-08-04T00:43:12.398Z,23.79
2018-08-04T00:44:23.785Z,23.75
2018-08-04T00:45:33.920Z,23.65
2018-08-04T00:46:44.079Z,23.69
2018-08-04T00:47:54.322Z,23.8
2018-08-04T00:49:04.546Z,23.8
2018-08-04T00:50:14.685Z,23.76
2018-08-04T00:51:24.993Z,23.76
2018-08-04T00:52:35.275Z,23.75
2018-08-04T00:53:45.440Z,23.8
2018-08-04T00:54:55.656Z,23.72
2018-08-04T00:56:05.852Z,23.69
2018-08-04T00:57:16.040Z,23.76
2018-08-04T00:58:26.367Z,23.76
2018-08-04T00:59:36.547Z,23.77
2018-08-04T01:00:46.817Z,23.69
2018-08-04T01:01:56.702Z,23.68
2018-08-04T01:03:06.854Z,23.64
2018-08-04T01:04:17.249Z,23.73
2018-08-04T01:05:27.118Z,23.72
2018-08-04T01:06:37.264Z,23.69
2018-08-04T01:07:47.561Z,23.72
2018-08-04T01:08:57.715Z,23.69
2018-08-04T01:10:07.949Z,23.73
2018-08-04T01:11:17.833Z,23.73
2018-08-04T01:12:28.678Z,23.73
2018-08-04T01:13:39.962Z,23.7
2018-08-04T01:14:51.211Z,23.68
2018-08-04T01:16:01.347Z,23.68
2018-08-04T01:17:11.918Z,23.6
2018-08-04T01:18:22.090Z,23.55
2018-08-04T01:19:31.963Z,23.54
2018-08-04T01:20:41.894Z,23.58
2018-08-04T01:21:52.014Z,23.54
2018-08-04T01:23:02.169Z,23.55
2018-08-04T01:24:12.334Z,23.5
2018-08-04T01:25:22.621Z,23.51
2018-08-04T01:26:33.735Z,23.5
2018-08-04T01:27:43.620Z,23.45
2018-08-04T01:28:53.396Z,23.4
2018-08-04T01:30:03.408Z,23.42
2018-08-04T01:31:13.573Z,23.4
2018-08-04T01:32:23.712Z,23.33
2018-08-04T01:33:34.010Z,23.25
2018-08-04T01:34:44.185Z,23.42
2018-08-04T01:35:54.403Z,23.38
2018-08-04T01:37:04.667Z,23.27
2018-08-04T01:38:14.811Z,23.27
2018-08-04T01:39:24.996Z,23.21
2018-08-04T01:40:35.123Z,23.23
2018-08-04T01:41:45.277Z,23.24
2018-08-04T01:42:55.389Z,23.31
2018-08-04T01:44:05.621Z,23.35
2018-08-04T01:45:15.771Z,23.21
2018-08-04T01:46:25.937Z,23.25
2018-08-04T01:47:36.151Z,23.24
2018-08-04T01:48:46.306Z,23.18
2018-08-04T01:49:56.461Z,23.27
2018-08-04T01:51:06.711Z,23.18
2018-08-04T01:52:16.597Z,23.21
2018-08-04T01:53:26.813Z,23.17
2018-08-04T01:54:37.042Z,23.17
2018-08-04T01:55:47.262Z,23.24
2018-08-04T01:56:57.457Z,23.18
2018-08-04T01:58:07.662Z,23.18
2018-08-04T01:59:17.682Z,23.2
2018-08-04T02:00:27.924Z,23.16
2018-08-04T02:01:38.049Z,23.09
2018-08-04T02:02:48.427Z,23.06
2018-08-04T02:03:58.549Z,23.14
2018-08-04T02:05:08.426Z,23.01
2018-08-04T02:06:19.527Z,22.98
2018-08-04T02:07:29.554Z,23.01
2018-08-04T02:08:40.614Z,22.9
2018-08-04T02:09:50.805Z,22.87
2018-08-04T02:11:00.962Z,22.89
2018-08-04T02:12:11.067Z,22.87
2018-08-04T02:13:20.901Z,22.86
2018-08-04T02:14:31.025Z,22.86
2018-08-04T02:15:41.135Z,22.87
2018-08-04T02:16:51.327Z,22.9
2018-08-04T02:18:01.523Z,22.89
2018-08-04T02:19:11.708Z,22.95
2018-08-04T02:20:21.317Z,22.9
2018-08-04T02:21:31.096Z,22.9
2018-08-04T02:22:41.344Z,22.86
2018-08-04T02:23:51.568Z,22.89
2018-08-04T02:25:01.767Z,22.9
2018-08-04T02:26:12.122Z,22.93
2018-08-04T02:27:22.316Z,22.86
2018-08-04T02:28:32.486Z,22.79
2018-08-04T02:29:42.627Z,22.79
2018-08-04T02:30:52.506Z,22.76
2018-08-04T02:32:02.678Z,22.7
2018-08-04T02:33:12.831Z,22.73
2018-08-04T02:34:23.049Z,22.68
2018-08-04T02:35:33.270Z,22.67
2018-08-04T02:36:43.410Z,22.67
2018-08-04T02:37:53.386Z,22.75
2018-08-04T02:39:03.546Z,22.65
2018-08-04T02:40:13.713Z,22.7
2018-08-04T02:41:23.541Z,22.68
2018-08-04T02:42:33.409Z,22.75
2018-08-04T02:43:43.554Z,22.68
2018-08-04T02:44:53.736Z,22.7
2018-08-04T02:46:03.871Z,22.75
2018-08-04T02:47:13.377Z,22.7
2018-08-04T02:48:23.494Z,22.67
2018-08-04T02:49:33.640Z,22.68
2018-08-04T02:50:43.514Z,22.7
2018-08-04T02:51:53.314Z,22.7
2018-08-04T02:53:03.270Z,22.78
2018-08-04T02:54:14.409Z,22.71
2018-08-04T02:55:24.600Z,22.68
2018-08-04T02:56:34.855Z,22.71
2018-08-04T02:57:45.755Z,22.68
2018-08-04T02:58:55.892Z,22.67
2018-08-04T03:00:06.020Z,22.65
2018-08-04T03:01:16.237Z,22.65
2018-08-04T03:02:26.432Z,22.64
2018-08-04T03:03:36.618Z,22.6
2018-08-04T03:04:46.760Z,22.63
2018-08-04T03:05:56.924Z,22.64
2018-08-04T03:07:06.804Z,22.63
2018-08-04T03:08:16.985Z,22.63
2018-08-04T03:09:27.255Z,22.6
2018-08-04T03:10:37.226Z,22.67
2018-08-04T03:11:47.378Z,22.6
2018-08-04T03:12:57.502Z,22.6
2018-08-04T03:14:07.679Z,22.64
2018-08-04T03:15:17.847Z,22.64
2018-08-04T03:16:28.137Z,22.65
2018-08-04T03:17:38.348Z,22.61
2018-08-04T03:18:48.535Z,22.67
2018-08-04T03:19:58.743Z,22.61
2018-08-04T03:21:08.667Z,22.6
2018-08-04T03:22:18.808Z,22.57
2018-08-04T03:23:28.790Z,22.52
2018-08-04T03:24:38.937Z,22.5
2018-08-04T03:25:49.088Z,22.63
2018-08-04T03:26:58.981Z,22.53
2018-08-04T03:28:10.097Z,22.48
2018-08-04T03:29:20.243Z,22.43
2018-08-04T03:30:30.397Z,22.45
2018-08-04T03:31:40.546Z,22.3
2018-08-04T03:32:50.495Z,22.34
2018-08-04T03:34:00.849Z,22.35
2018-08-04T03:35:10.772Z,22.27
2018-08-04T03:36:20.638Z,22.39
2018-08-04T03:37:30.789Z,22.34
2018-08-04T03:38:40.954Z,22.3
2018-08-04T03:39:50.818Z,22.38
2018-08-04T03:41:00.738Z,22.27
2018-08-04T03:42:10.873Z,22.2
2018-08-04T03:43:21.011Z,22.26
2018-08-04T03:44:31.151Z,22.26
2018-08-04T03:45:41.045Z,22.21
2018-08-04T03:46:50.923Z,22.26
2018-08-04T03:48:00.717Z,22.23
2018-08-04T03:49:10.958Z,22.23
2018-08-04T03:50:21.172Z,22.24
2018-08-04T03:51:31.562Z,22.18
2018-08-04T03:52:41.708Z,22.15
2018-08-04T03:53:51.912Z,22.21
2018-08-04T03:55:02.072Z,22.26
2018-08-04T03:56:12.275Z,22.16
2018-08-04T03:57:22.482Z,22.18
2018-08-04T03:58:32.348Z,22.2
2018-08-04T03:59:42.603Z,22.21
2018-08-04T04:00:52.901Z,22.27
2018-08-04T04:02:03.040Z,22.28
2018-08-04T04:03:13.380Z,22.33
2018-08-04T04:04:23.510Z,22.31
2018-08-04T04:05:33.634Z,22.38
2018-08-04T04:06:43.597Z,22.4
2018-08-04T04:07:53.873Z,22.45
2018-08-04T04:09:03.883Z,22.48
2018-08-04T04:10:14.057Z,22.4
2018-08-04T04:11:24.245Z,22.43
2018-08-04T04:12:34.460Z,22.45
2018-08-04T04:13:44.604Z,22.42
2018-08-04T04:14:54.752Z,22.45
2018-08-04T04:16:04.880Z,22.45
2018-08-04T04:17:15.030Z,22.31
2018-08-04T04:18:25.408Z,22.31
2018-08-04T04:19:35.307Z,22.42
2018-08-04T04:20:45.431Z,22.3
2018-08-04T04:21:55.559Z,22.33
2018-08-04T04:23:05.736Z,22.38
2018-08-04T04:24:15.782Z,22.31
2018-08-04T04:25:25.926Z,22.38
2018-08-04T04:26:36.154Z,22.39
2018-08-04T04:27:46.012Z,22.38
2018-08-04T04:28:56.176Z,22.35
2018-08-04T04:30:06.332Z,22.31
2018-08-04T04:31:16.501Z,22.45
2018-08-04T04:32:26.680Z,22.43
2018-08-04T04:33:36.968Z,22.53
2018-08-04T04:34:47.193Z,22.52
2018-08-04T04:35:57.316Z,22.57
2018-08-04T04:37:07.466Z,22.64
2018-08-04T04:38:18.851Z,22.65
2018-08-04T04:39:29.048Z,22.63
2018-08-04T04:40:39.215Z,22.64
2018-08-04T04:41:49.450Z,22.7
2018-08-04T04:42:59.359Z,22.71
2018-08-04T04:44:09.288Z,22.7
2018-08-04T04:45:19.408Z,22.73
2018-08-04T04:46:29.535Z,22.75
2018-08-04T04:47:39.655Z,22.76
2018-08-04T04:48:49.774Z,22.63
2018-08-04T04:49:59.383Z,22.61
2018-08-04T04:51:09.174Z,22.57
2018-08-04T04:52:19.349Z,22.52
2018-08-04T04:53:29.500Z,22.5
2018-08-04T04:54:39.656Z,22.45
2018-08-04T04:55:49.804Z,22.42
2018-08-04T04:56:59.982Z,22.43
2018-08-04T04:58:10.307Z,22.46
2018-08-04T04:59:20.196Z,22.42
2018-08-04T05:00:30.305Z,22.57
2018-08-04T05:01:40.442Z,22.53
2018-08-04T05:02:50.345Z,22.65
2018-08-04T05:04:00.510Z,22.71
2018-08-04T05:05:10.647Z,22.73
2018-08-04T05:06:20.899Z,22.86
2018-08-04T05:07:30.753Z,22.9
2018-08-04T05:08:40.828Z,23.02
2018-08-04T05:09:51.158Z,23.13
2018-08-04T05:11:01.357Z,23.08
2018-08-04T05:12:11.582Z,23.16
2018-08-04T05:13:21.903Z,23.17
2018-08-04T05:14:32.241Z,23.16
2018-08-04T05:15:42.519Z,23.2
2018-08-04T05:16:52.670Z,23.08
2018-08-04T05:18:02.803Z,23.09
2018-08-04T05:19:13.029Z,23.03
2018-08-04T05:20:23.151Z,22.98
2018-08-04T05:21:33.444Z,22.98
2018-08-04T05:22:43.827Z,23.08
2018-08-04T05:23:54.154Z,22.99
2018-08-04T05:25:04.313Z,22.98
2018-08-04T05:26:14.205Z,23.03
2018-08-04T05:27:24.125Z,23.14
2018-08-04T05:28:34.060Z,23.06
2018-08-04T05:29:43.667Z,23.11
2018-08-04T05:30:53.795Z,23.08
2018-08-04T05:32:04.211Z,23.11
2018-08-04T05:33:15.559Z,23.13
2018-08-04T05:34:25.692Z,23.08
2018-08-04T05:35:35.816Z,23.01
2018-08-04T05:36:46.152Z,23.03
2018-08-04T05:37:56.288Z,23.01
2018-08-04T05:39:06.470Z,22.96
2018-08-04T05:40:16.761Z,22.86
2018-08-04T05:41:26.893Z,22.86
2018-08-04T05:42:37.143Z,22.89
2018-08-04T05:43:47.378Z,22.87
2018-08-04T05:44:57.802Z,22.86
2018-08-04T05:46:08.169Z,23.01
2018-08-04T05:47:18.296Z,22.99
2018-08-04T05:48:28.743Z,23.06
2018-08-04T05:49:38.994Z,23.03
2018-08-04T05:50:48.929Z,23.03
2018-08-04T05:51:58.696Z,23.05
2018-08-04T05:53:08.495Z,23.01
2018-08-04T05:54:18.628Z,23.14
2018-08-04T05:55:29.006Z,22.99
2018-08-04T05:56:39.126Z,23.03
2018-08-04T05:57:49.258Z,23.02
2018-08-04T05:58:59.521Z,23.08
2018-08-04T06:00:09.439Z,23.13
2018-08-04T06:01:19.671Z,23.23
2018-08-04T06:02:29.857Z,23.17
2018-08-04T06:03:40.000Z,23.23
2018-08-04T06:04:50.146Z,23.28
2018-08-04T06:06:00.273Z,23.38
2018-08-04T06:07:10.483Z,23.35
2018-08-04T06:08:20.673Z,23.39
2018-08-04T06:09:30.862Z,23.46
2018-08-04T06:10:40.672Z,23.51
2018-08-04T06:11:50.831Z,23.55
2018-08-04T06:13:01.053Z,23.63
2018-08-04T06:14:11.187Z,23.65
2018-08-04T06:15:21.432Z,23.73
2018-08-04T06:16:31.584Z,23.72
2018-08-04T06:17:41.239Z,23.72
2018-08-04T06:18:51.438Z,23.77
2018-08-04T06:20:01.580Z,23.83
2018-08-04T06:21:11.711Z,23.9
2018-08-04T06:22:21.849Z,23.94
2018-08-04T06:23:31.992Z,23.98
2018-08-04T06:24:42.132Z,24
2018-08-04T06:25:52.360Z,24.12
2018-08-04T06:27:02.531Z,24.13
2018-08-04T06:28:12.833Z,24.12
2018-08-04T06:29:23.229Z,24.17
2018-08-04T06:30:33.570Z,24.17
2018-08-04T06:31:44.159Z,24.13
2018-08-04T06:32:54.321Z,24.19
2018-08-04T06:34:05.492Z,24.24
2018-08-04T06:35:15.729Z,24.27
2018-08-04T06:36:25.941Z,24.28
2018-08-04T06:37:36.189Z,24.32
2018-08-04T06:38:46.408Z,24.34
2018-08-04T06:39:56.587Z,24.32
2018-08-04T06:41:06.823Z,24.34
2018-08-04T06:42:17.192Z,24.51
2018-08-04T06:43:27.381Z,24.44
2018-08-04T06:44:37.566Z,24.55
2018-08-04T06:45:47.766Z,24.57
2018-08-04T06:46:57.918Z,24.58
2018-08-04T06:48:08.232Z,24.62
2018-08-04T06:49:18.495Z,24.7
2018-08-04T06:50:28.639Z,24.76
2018-08-04T06:51:39.491Z,24.75
2018-08-04T06:52:49.744Z,24.7
2018-08-04T06:54:00.250Z,24.84
2018-08-04T06:55:10.646Z,24.85
2018-08-04T06:56:20.833Z,24.91
2018-08-04T06:57:30.639Z,24.9
2018-08-04T06:58:40.786Z,25.02
2018-08-04T06:59:50.925Z,25
2018-08-04T07:01:01.115Z,25.06
2018-08-04T07:02:10.989Z,25.09
2018-08-04T07:03:21.146Z,25.12
2018-08-04T07:04:31.284Z,25.17
2018-08-04T07:05:41.447Z,25.19
2018-08-04T07:06:51.685Z,25.19
2018-08-04T07:08:01.935Z,25.12
2018-08-04T07:09:12.184Z,25.29
2018-08-04T07:10:22.429Z,25.22
2018-08-04T07:11:32.302Z,25.21
2018-08-04T07:12:42.470Z,25.28
2018-08-04T07:13:52.806Z,25.29
2018-08-04T07:15:02.993Z,25.37
2018-08-04T07:16:13.142Z,25.42
2018-08-04T07:17:23.277Z,25.42
2018-08-04T07:18:33.444Z,25.4
2018-08-04T07:19:43.616Z,25.34
2018-08-04T07:20:53.767Z,25.34
2018-08-04T07:22:03.646Z,25.49
2018-08-04T07:23:13.881Z,25.44
2018-08-04T07:24:24.138Z,25.54
2018-08-04T07:25:34.081Z,25.49
2018-08-04T07:26:44.227Z,25.5
2018-08-04T07:27:54.383Z,25.61
2018-08-04T07:29:04.572Z,25.62
2018-08-04T07:30:15.061Z,25.56
2018-08-04T07:31:25.182Z,25.65
2018-08-04T07:32:35.335Z,25.62
2018-08-04T07:33:45.505Z,25.64
2018-08-04T07:34:55.383Z,25.69
2018-08-04T07:36:05.302Z,25.73
2018-08-04T07:37:15.551Z,25.73
2018-08-04T07:38:25.705Z,25.73
2018-08-04T07:39:37.041Z,25.77
2018-08-04T07:40:47.229Z,25.85
2018-08-04T07:41:57.431Z,25.88
2018-08-04T07:43:07.589Z,25.92
2018-08-04T07:44:17.832Z,25.93
2018-08-04T07:45:28.132Z,25.97
2018-08-04T07:46:37.787Z,26
2018-08-04T07:47:47.947Z,26.11
2018-08-04T07:48:58.212Z,26.09
2018-08-04T07:50:08.503Z,26.15
2018-08-04T07:51:18.648Z,26.11
2018-08-04T07:52:28.942Z,26.16
2018-08-04T07:53:39.170Z,26.19
2018-08-04T07:54:49.550Z,26.3
2018-08-04T07:55:59.457Z,26.19
2018-08-04T07:57:09.631Z,26.31
2018-08-04T07:58:19.799Z,26.39
2018-08-04T07:59:30.126Z,26.39
2018-08-04T08:00:40.579Z,26.46
2018-08-04T08:01:50.736Z,26.49
2018-08-04T08:03:00.879Z,26.55
2018-08-04T08:04:11.061Z,26.64
2018-08-04T08:05:21.197Z,26.71
2018-08-04T08:06:31.592Z,26.7
2018-08-04T08:07:41.781Z,26.75
2018-08-04T08:08:51.995Z,26.74
2018-08-04T08:10:02.186Z,26.82
2018-08-04T08:11:12.666Z,26.9
2018-08-04T08:12:23.255Z,26.92
2018-08-04T08:13:33.426Z,26.99
2018-08-04T08:14:43.634Z,27.1
2018-08-04T08:15:53.817Z,27.17
2018-08-04T08:17:03.757Z,27.23
2018-08-04T08:18:13.940Z,27.46
2018-08-04T08:19:23.539Z,27.37
2018-08-04T08:20:33.847Z,27.45
2018-08-04T08:21:43.990Z,27.6
2018-08-04T08:22:54.149Z,27.68
2018-08-04T08:24:04.450Z,27.8
2018-08-04T08:25:14.654Z,27.9
2018-08-04T08:26:24.826Z,27.98
2018-08-04T08:27:34.949Z,28.08
2018-08-04T08:28:44.832Z,28.26
2018-08-04T08:29:54.718Z,28.27
2018-08-04T08:31:04.901Z,28.29
2018-08-04T08:32:15.136Z,28.44
2018-08-04T08:33:25.283Z,28.58
2018-08-04T08:34:35.180Z,28.69
2018-08-04T08:35:45.313Z,28.88
2018-08-04T08:36:55.478Z,29.07
2018-08-04T08:38:05.657Z,29.2
2018-08-04T08:39:15.473Z,29.43
2018-08-04T08:40:25.786Z,29.95
2018-08-04T08:41:35.868Z,30.56
2018-08-04T08:42:45.787Z,31.25
2018-08-04T08:43:55.927Z,31.98
2018-08-04T08:45:06.091Z,32.5
2018-08-04T08:46:16.237Z,32.89
2018-08-04T08:47:26.444Z,33.25
2018-08-04T08:48:36.635Z,33.63
2018-08-04T08:49:46.771Z,33.94
2018-08-04T08:50:57.924Z,34.27
2018-08-04T08:52:08.085Z,34.35
2018-08-04T08:53:18.532Z,34.24
2018-08-04T08:54:29.218Z,33.95
2018-08-04T08:55:39.379Z,33.64
2018-08-04T08:56:49.748Z,33.31
2018-08-04T08:57:59.942Z,33.05
2018-08-04T08:59:10.168Z,32.65
2018-08-04T09:00:20.394Z,32.47
2018-08-04T09:01:30.551Z,32.06
2018-08-04T09:02:40.759Z,31.8
2018-08-04T09:03:51.004Z,31.57
2018-08-04T09:05:01.243Z,31.28
2018-08-04T09:06:11.439Z,31.05
2018-08-04T09:07:21.624Z,30.91
2018-08-04T09:08:31.913Z,30.72
2018-08-04T09:09:42.218Z,30.61
2018-08-04T09:10:52.389Z,30.79
2018-08-04T09:12:02.572Z,30.78
2018-08-04T09:13:13.473Z,30.69
2018-08-04T09:14:23.674Z,30.76
2018-08-04T09:15:33.917Z,30.91
2018-08-04T09:16:44.162Z,31.1
2018-08-04T09:17:54.361Z,31.38
2018-08-04T09:19:04.528Z,31.7
2018-08-04T09:20:14.694Z,31.99
2018-08-04T09:21:24.593Z,32.44
2018-08-04T09:22:34.773Z,32.69
2018-08-04T09:23:44.941Z,32.84
2018-08-04T09:24:55.087Z,33.11
2018-08-04T09:26:05.270Z,33.2
2018-08-04T09:27:15.182Z,33.37
2018-08-04T09:28:25.075Z,33.37
2018-08-04T09:29:35.311Z,33.61
2018-08-04T09:30:45.625Z,33.64
2018-08-04T09:31:55.584Z,33.73
2018-08-04T09:33:05.741Z,33.87
2018-08-04T09:34:15.929Z,33.87
2018-08-04T09:35:25.848Z,33.91
2018-08-04T09:36:36.016Z,33.86
2018-08-04T09:37:46.162Z,33.93
2018-08-04T09:38:56.305Z,33.93
2018-08-04T09:40:06.367Z,33.93
2018-08-04T09:41:16.530Z,33.93
2018-08-04T09:42:26.709Z,33.9
2018-08-04T09:43:36.937Z,33.88
2018-08-04T09:44:47.269Z,33.83
2018-08-04T09:45:57.625Z,33.73
2018-08-04T09:47:07.774Z,33.72
2018-08-04T09:48:17.683Z,33.83
2018-08-04T09:49:27.849Z,33.81
2018-08-04T09:50:37.498Z,33.88
2018-08-04T09:51:47.665Z,34.03
2018-08-04T09:52:57.863Z,34.1
2018-08-04T09:54:08.114Z,34.22
2018-08-04T09:55:18.024Z,34.22
2018-08-04T09:56:28.251Z,34.17
2018-08-04T09:57:38.411Z,34.09
2018-08-04T09:58:48.565Z,33.94
2018-08-04T09:59:58.787Z,33.83
2018-08-04T10:01:08.723Z,33.82
2018-08-04T10:02:18.906Z,33.68
2018-08-04T10:03:30.023Z,33.93
2018-08-04T10:04:40.181Z,34
2018-08-04T10:05:50.341Z,33.98
2018-08-04T10:07:00.505Z,34.03
2018-08-04T10:08:10.648Z,34.09
2018-08-04T10:09:20.823Z,34.12
2018-08-04T10:10:30.750Z,34.09
2018-08-04T10:11:40.960Z,34.13
2018-08-04T10:12:51.133Z,34.19
2018-08-04T10:14:01.056Z,34.25
2018-08-04T10:15:10.977Z,34.45
2018-08-04T10:16:21.194Z,34.62
2018-08-04T10:17:31.353Z,34.73
2018-08-04T10:18:41.493Z,34.95
2018-08-04T10:19:51.677Z,35.08
2018-08-04T10:21:01.918Z,35.34
2018-08-04T10:22:12.135Z,35.47
2018-08-04T10:23:21.932Z,35.64
2018-08-04T10:24:32.144Z,35.54
2018-08-04T10:25:42.015Z,35.38
2018-08-04T10:26:52.171Z,35.25
2018-08-04T10:28:02.347Z,35.25
2018-08-04T10:29:12.526Z,35.28
2018-08-04T10:30:22.680Z,35.42
2018-08-04T10:31:32.878Z,35.56
2018-08-04T10:32:43.445Z,35.54
2018-08-04T10:33:53.976Z,35.45
2018-08-04T10:35:04.115Z,35.47
2018-08-04T10:36:14.502Z,35.38
2018-08-04T10:37:24.655Z,35.34
2018-08-04T10:38:34.958Z,35.37
2018-08-04T10:39:45.418Z,35.35
2018-08-04T10:40:55.328Z,35.16
2018-08-04T10:42:05.556Z,35.03
2018-08-04T10:43:15.847Z,35.03
2018-08-04T10:44:25.730Z,34.82
2018-08-04T10:45:36.007Z,34.64
2018-08-04T10:46:46.231Z,34.51
2018-08-04T10:47:56.393Z,34.35
2018-08-04T10:49:06.593Z,34.33
2018-08-04T10:50:16.751Z,34.31
2018-08-04T10:51:27.129Z,34.22
2018-08-04T10:52:37.347Z,34.05
2018-08-04T10:53:47.594Z,33.87
2018-08-04T10:54:57.742Z,33.78
2018-08-04T10:56:07.921Z,33.63
2018-08-04T10:57:17.908Z,33.52
2018-08-04T10:58:28.324Z,33.38
2018-08-04T10:59:37.966Z,33.34
2018-08-04T11:00:48.133Z,33.27
2018-08-04T11:01:58.312Z,33.29
2018-08-04T11:03:08.500Z,33.39
2018-08-04T11:04:18.671Z,33.42
2018-08-04T11:05:28.833Z,33.52
2018-08-04T11:06:39.000Z,33.56
2018-08-04T11:07:49.219Z,33.73
2018-08-04T11:08:59.394Z,33.9
2018-08-04T11:10:09.590Z,34.08
2018-08-04T11:11:19.788Z,34.2
2018-08-04T11:12:30.166Z,34.33
2018-08-04T11:13:40.484Z,34.33
2018-08-04T11:14:50.713Z,34.29
2018-08-04T11:16:00.909Z,34.43
2018-08-04T11:17:12.090Z,34.54
2018-08-04T11:18:22.309Z,34.5
2018-08-04T11:19:32.516Z,34.5
2018-08-04T11:20:42.683Z,34.35
2018-08-04T11:21:52.855Z,34.19
2018-08-04T11:23:03.033Z,34.03
2018-08-04T11:24:13.645Z,33.81
2018-08-04T11:25:24.055Z,33.69
2018-08-04T11:26:34.231Z,33.45
2018-08-04T11:27:43.921Z,33.39
2018-08-04T11:28:54.092Z,33.37
2018-08-04T11:30:04.267Z,33.22
2018-08-04T11:31:14.469Z,33.19
2018-08-04T11:32:25.348Z,33.13
2018-08-04T11:33:35.557Z,32.94
2018-08-04T11:34:45.803Z,32.97
2018-08-04T11:35:56.089Z,33.11
2018-08-04T11:37:06.265Z,33.41
2018-08-04T11:38:16.162Z,33.5
2018-08-04T11:39:26.333Z,33.86
2018-08-04T11:40:36.537Z,34.12
2018-08-04T11:41:46.712Z,34.5
2018-08-04T11:42:57.837Z,34.7
2018-08-04T11:44:08.112Z,34.99
2018-08-04T11:45:18.421Z,35.22
2018-08-04T11:46:28.674Z,35.44
2018-08-04T11:47:38.843Z,35.49
2018-08-04T11:48:48.756Z,35.56
2018-08-04T11:49:58.905Z,35.71
2018-08-04T11:51:10.037Z,35.8
2018-08-04T11:52:20.231Z,35.86
2018-08-04T11:53:30.403Z,35.92
2018-08-04T11:54:40.594Z,35.95
2018-08-04T11:55:50.797Z,36.18
2018-08-04T11:57:01.002Z,36.26
2018-08-04T11:58:11.204Z,36.24
2018-08-04T11:59:21.489Z,36.29
2018-08-04T12:00:31.682Z,36.36
2018-08-04T12:01:41.963Z,36.32
2018-08-04T12:02:53.132Z,36.31
2018-08-04T12:04:03.060Z,36.35
2018-08-04T12:05:13.290Z,36.35
2018-08-04T12:06:23.527Z,36.45
2018-08-04T12:07:33.897Z,36.4
2018-08-04T12:08:44.077Z,36.39
2018-08-04T12:09:54.301Z,36.48
2018-08-04T12:11:04.563Z,36.51
2018-08-04T12:12:15.104Z,36.54
2018-08-04T12:13:25.278Z,36.55
2018-08-04T12:14:35.435Z,36.47
2018-08-04T12:15:45.347Z,36.43
2018-08-04T12:16:55.514Z,36.51
2018-08-04T12:18:05.870Z,36.38
2018-08-04T12:19:15.655Z,36.4
2018-08-04T12:20:25.660Z,36.29
2018-08-04T12:21:35.841Z,36.32
2018-08-04T12:22:46.044Z,36.21
2018-08-04T12:23:55.967Z,36.16
2018-08-04T12:25:06.163Z,36.09
2018-08-04T12:26:16.512Z,35.95
2018-08-04T12:27:26.702Z,35.91
2018-08-04T12:28:36.972Z,35.91
2018-08-04T12:29:47.181Z,35.89
2018-08-04T12:30:57.457Z,35.76
2018-08-04T12:32:07.659Z,35.76
2018-08-04T12:33:17.896Z,35.57
2018-08-04T12:34:28.147Z,35.49
2018-08-04T12:35:38.314Z,35.35
2018-08-04T12:36:48.505Z,35.34
2018-08-04T12:37:58.690Z,35.26
2018-08-04T12:39:08.992Z,35.2
2018-08-04T12:40:18.911Z,35.13
2018-08-04T12:41:28.851Z,35
2018-08-04T12:42:39.023Z,35.01
2018-08-04T12:43:48.962Z,35
2018-08-04T12:44:59.159Z,35.14
2018-08-04T12:46:09.402Z,35.06
2018-08-04T12:47:19.311Z,35
2018-08-04T12:48:29.456Z,35.06
2018-08-04T12:49:39.647Z,34.97
2018-08-04T12:50:49.849Z,34.89
2018-08-04T12:52:00.099Z,34.97
2018-08-04T12:53:10.247Z,34.86
2018-08-04T12:54:19.860Z,34.85
2018-08-04T12:55:30.124Z,34.82
2018-08-04T12:56:40.395Z,34.74
2018-08-04T12:57:50.548Z,34.69
2018-08-04T12:59:00.714Z,34.62
2018-08-04T13:00:11.028Z,34.62
2018-08-04T13:01:21.988Z,34.67
2018-08-04T13:02:32.247Z,34.64
2018-08-04T13:03:42.592Z,34.58
2018-08-04T13:04:52.880Z,34.43
2018-08-04T13:06:03.128Z,34.2
2018-08-04T13:07:12.840Z,34.1
2018-08-04T13:08:23.086Z,33.98
2018-08-04T13:09:32.986Z,33.95
2018-08-04T13:10:43.140Z,33.91
2018-08-04T13:11:53.374Z,33.93
2018-08-04T13:13:03.731Z,33.81
2018-08-04T13:14:13.885Z,33.88
2018-08-04T13:15:23.846Z,33.86
2018-08-04T13:16:34.146Z,33.73
2018-08-04T13:17:44.356Z,33.68
2018-08-04T13:18:54.239Z,33.59
2018-08-04T13:20:04.416Z,33.64
2018-08-04T13:21:15.667Z,33.6
2018-08-04T13:22:25.868Z,33.6
2018-08-04T13:23:36.048Z,33.59
2018-08-04T13:24:47.199Z,33.48
2018-08-04T13:25:57.379Z,33.41
2018-08-04T13:27:07.561Z,33.35
2018-08-04T13:28:17.393Z,33.42
2018-08-04T13:29:27.736Z,33.41
2018-08-04T13:30:37.962Z,33.41
2018-08-04T13:31:48.118Z,33.44
2018-08-04T13:32:58.344Z,33.37
2018-08-04T13:34:08.298Z,33.42
2018-08-04T13:35:18.456Z,33.41
2018-08-04T13:36:28.628Z,33.41
2018-08-04T13:37:38.603Z,33.38
2018-08-04T13:38:48.902Z,33.38
2018-08-04T13:39:59.146Z,33.34
2018-08-04T13:41:09.363Z,33.41
2018-08-04T13:42:19.547Z,33.39
2018-08-04T13:43:29.787Z,33.42
2018-08-04T13:44:39.602Z,33.44
2018-08-04T13:45:49.799Z,33.37
2018-08-04T13:47:00.959Z,33.38
2018-08-04T13:48:11.190Z,33.39
2018-08-04T13:49:21.344Z,33.41
2018-08-04T13:50:31.605Z,33.35
2018-08-04T13:51:41.868Z,33.35
2018-08-04T13:52:51.789Z,33.37
2018-08-04T13:54:02.194Z,33.38
2018-08-04T13:55:12.399Z,33.35
2018-08-04T13:56:22.720Z,33.25
2018-08-04T13:57:32.900Z,33.25
2018-08-04T13:58:43.089Z,33.29
2018-08-04T13:59:53.482Z,33.29
2018-08-04T14:01:03.663Z,33.34
2018-08-04T14:02:13.566Z,33.29
2018-08-04T14:03:23.767Z,33.27
2018-08-04T14:04:33.962Z,33.31
2018-08-04T14:05:43.981Z,33.22
2018-08-04T14:06:54.302Z,33.11
2018-08-04T14:08:04.221Z,33
2018-08-04T14:09:14.620Z,32.92
2018-08-04T14:10:26.736Z,32.82
2018-08-04T14:11:37.917Z,32.63
2018-08-04T14:12:48.108Z,32.6
2018-08-04T14:13:58.326Z,32.51
2018-08-04T14:15:08.624Z,32.32
2018-08-04T14:16:18.844Z,32.38
2018-08-04T14:17:29.230Z,32.35
2018-08-04T14:18:39.594Z,32.38
2018-08-04T14:19:49.754Z,32.47
2018-08-04T14:20:59.414Z,32.4
2018-08-04T14:22:09.590Z,32.43
2018-08-04T14:23:19.817Z,32.54
2018-08-04T14:24:29.793Z,32.51
2018-08-04T14:25:39.968Z,32.56
2018-08-04T14:26:49.946Z,32.6
2018-08-04T14:28:00.166Z,32.63
2018-08-04T14:29:10.378Z,32.7
2018-08-04T14:30:20.576Z,32.69
2018-08-04T14:31:30.796Z,32.62
2018-08-04T14:32:40.973Z,32.59
2018-08-04T14:33:51.165Z,32.63
2018-08-04T14:35:01.575Z,32.6
2018-08-04T14:36:12.190Z,32.6
2018-08-04T14:37:22.377Z,32.62
2018-08-04T14:38:32.634Z,32.54
2018-08-04T14:39:42.522Z,32.48
2018-08-04T14:40:52.687Z,32.44
2018-08-04T14:42:02.853Z,32.47
2018-08-04T14:43:13.101Z,32.35
2018-08-04T14:44:23.289Z,32.38
2018-08-04T14:45:33.479Z,32.29
2018-08-04T14:46:43.660Z,32.46
2018-08-04T14:47:54.494Z,32.44
2018-08-04T14:49:04.674Z,32.38
2018-08-04T14:50:14.600Z,32.43
2018-08-04T14:51:24.501Z,32.47
2018-08-04T14:52:34.857Z,32.38
2018-08-04T14:53:45.012Z,32.31
2018-08-04T14:54:54.937Z,32.31
2018-08-04T14:56:05.362Z,32.31
2018-08-04T14:57:15.524Z,32.31
2018-08-04T14:58:25.684Z,32.22
2018-08-04T14:59:35.871Z,32.21
2018-08-04T15:00:46.049Z,32.19
2018-08-04T15:01:56.351Z,32.22
2018-08-04T15:03:06.510Z,32.22
2018-08-04T15:04:16.750Z,32.24
2018-08-04T15:05:26.736Z,32.1
2018-08-04T15:06:36.532Z,32.19
2018-08-04T15:07:46.499Z,32.11
2018-08-04T15:08:56.722Z,32.16